createdAt,value
2018-12-12T00:09:49.100Z,1.93
2018-12-12T00:20:08.868Z,1.83
2018-12-12T00:30:28.626Z,1.91
2018-12-12T00:40:48.454Z,1.77
2018-12-12T00:51:08.832Z,1.71
2018-12-12T01:01:28.324Z,1.67
2018-12-12T01:12:02.890Z,1.61
2018-12-12T01:22:22.468Z,1.71
2018-12-12T01:32:41.806Z,1.65
2018-12-12T01:43:01.071Z,1.72
2018-12-12T01:53:21.242Z,1.75
2018-12-12T02:03:41.054Z,1.62
2018-12-12T02:14:01.023Z,1.61
2018-12-12T02:24:21.841Z,1.65
2018-12-12T02:34:40.844Z,1.56
2018-12-12T02:45:00.841Z,1.52
2018-12-12T02:55:20.612Z,1.53
2018-12-12T03:05:39.969Z,1.53
2018-12-12T03:16:00.063Z,1.49
2018-12-12T03:26:19.336Z,1.40
2018-12-12T03:36:38.741Z,1.50
2018-12-12T03:46:58.553Z,1.51
2018-12-12T03:57:19.275Z,1.51
2018-12-12T04:07:38.509Z,1.58
2018-12-12T04:17:58.290Z,1.65
2018-12-12T04:28:20.362Z,1.56
2018-12-12T04:38:40.520Z,1.58
2018-12-12T04:49:00.098Z,1.55
2018-12-12T04:59:20.684Z,1.53
2018-12-12T05:09:42.315Z,1.50
2018-12-12T05:20:03.720Z,1.37
2018-12-12T05:30:23.167Z,1.38
2018-12-12T05:40:42.773Z,1.38
2018-12-12T05:51:02.943Z,1.36
2018-12-12T06:01:23.755Z,1.40
2018-12-12T06:11:43.416Z,1.13
2018-12-12T06:22:02.405Z,1.19
2018-12-12T06:32:23.282Z,1.16
2018-12-12T06:42:46.511Z,1.26
2018-12-12T06:53:06.300Z,1.12
2018-12-12T07:03:25.898Z,1.09
2018-12-12T07:13:46.517Z,1.21
2018-12-12T07:24:06.624Z,1.03
2018-12-12T07:34:26.090Z,1.03
2018-12-12T07:44:47.181Z,0.90
2018-12-12T07:55:08.200Z,0.92
2018-12-12T08:05:27.205Z,0.98
2018-12-12T08:15:47.048Z,1.29
2018-12-12T08:26:07.119Z,1.48
2018-12-12T08:36:26.418Z,1.57
2018-12-12T08:46:45.779Z,1.58
2018-12-12T08:57:05.853Z,1.49
2018-12-12T09:07:25.915Z,1.55
2018-12-12T09:17:45.693Z,1.34
2018-12-12T09:28:06.926Z,1.61
2018-12-12T09:38:27.376Z,1.69
2018-12-12T09:48:46.362Z,1.90
2018-12-12T09:59:05.987Z,2.07
2018-12-12T10:09:25.749Z,2.44
2018-12-12T10:19:45.524Z,2.80
2018-12-12T10:30:05.583Z,2.89
2018-12-12T10:40:26.480Z,2.85
2018-12-12T10:50:46.302Z,2.66
2018-12-12T11:01:24.813Z,2.52
2018-12-12T11:11:44.104Z,2.19
2018-12-12T11:22:04.168Z,2.24
2018-12-12T11:32:23.430Z,2.17
2018-12-12T11:42:42.990Z,2.32
2018-12-12T11:53:02.607Z,2.34
2018-12-12T12:03:22.514Z,2.23
2018-12-12T12:13:41.476Z,2.21
2018-12-12T12:24:01.044Z,2.14
2018-12-12T12:34:21.470Z,2.09
2018-12-12T12:44:41.172Z,2.13
2018-12-12T12:55:01.588Z,2.07
2018-12-12T13:05:21.062Z,2.27
2018-12-12T13:15:40.640Z,2.20
2018-12-12T13:26:00.054Z,2.05
2018-12-12T13:36:21.120Z,1.73
2018-12-12T13:46:40.033Z,1.71
2018-12-12T13:56:59.815Z,1.55
2018-12-12T14:07:19.474Z,1.40
2018-12-12T14:17:39.582Z,1.43
2018-12-12T14:28:00.837Z,1.43
2018-12-12T14:38:21.195Z,1.32
2018-12-12T14:48:41.327Z,1.37
2018-12-12T14:59:02.472Z,1.28
2018-12-12T15:09:23.730Z,1.35
2018-12-12T15:19:45.573Z,1.32
2018-12-12T15:30:08.879Z,1.24
2018-12-12T15:40:31.888Z,1.10
2018-12-12T16:02:33.055Z,1.09
2018-12-12T16:13:23.182Z,1.02
2018-12-12T17:06:08.552Z,0.86
2018-12-12T17:16:32.360Z,0.89
2018-12-12T17:26:51.835Z,0.89
2018-12-12T17:37:17.418Z,0.82
2018-12-12T17:47:37.714Z,0.81
2018-12-12T17:57:58.613Z,0.73
2018-12-12T18:08:19.903Z,0.80
2018-12-12T18:18:40.132Z,0.86
2018-12-12T18:29:00.824Z,0.89
2018-12-12T18:39:21.800Z,0.97
2018-12-12T18:49:42.429Z,0.88
2018-12-12T19:00:12.782Z,0.86
2018-12-12T19:10:36.179Z,0.77
2018-12-12T19:21:00.449Z,0.76
2018-12-12T19:31:22.831Z,0.72
2018-12-12T19:41:45.767Z,0.74
2018-12-12T19:52:06.458Z,0.64
2018-12-12T20:02:33.198Z,0.75
2018-12-12T20:13:02.824Z,0.75
2018-12-12T20:23:25.052Z,0.72
2018-12-12T20:33:48.445Z,0.74
2018-12-12T20:44:14.438Z,0.67
2018-12-12T20:54:37.738Z,0.70
2018-12-12T21:04:58.866Z,0.65
2018-12-12T21:15:22.483Z,0.49
2018-12-12T21:25:44.700Z,0.56
2018-12-12T21:36:04.988Z,0.59
2018-12-12T21:46:26.017Z,0.59
2018-12-12T21:56:47.218Z,0.61
2018-12-12T22:07:08.249Z,0.48
2018-12-12T22:17:28.980Z,0.24
2018-12-12T22:27:49.656Z,0.24
2018-12-12T22:38:09.442Z,0.16
2018-12-12T22:48:28.471Z,0.16
2018-12-12T22:58:48.105Z,0.18
2018-12-12T23:09:09.336Z,0.18
2018-12-12T23:19:29.446Z,0.23
2018-12-12T23:29:51.381Z,0.18
2018-12-12T23:40:10.966Z,0.18
2018-12-12T23:50:30.208Z,0.15
